Lac Du Bonnet, Canada
Current Conditions -  °F | °C
As of 12:00 AM on Wednesday 22 Oct 2014 (Local Time) from CYWG Reporting Station
Clear Clear  
Wind Chill: 54°   Ceiling: Unl
Heat Index: 54°   Visibility: 15mi
Dew Point: 41°   Wind: 28mph
Humidity: 62%   Direction: 170°S
Pressure: 29.8"   Gusts: 39mph
Location:  50.27°N, 96.05°W
Report Text: CYWG 220500Z 17024G34KT 15SM SKC 12/05 A2980 RMK SLP095 DENSITY ALT 800FT
Loading
Personal Weather Stations






























Interactive Weather Map
Tropical Storm Tracking
New forecast layout! Learn more

10-Day Weather Forecast

Advertisements
Track Severe Weather on mobile